< Cyclone 201005 2010 Season Cyclone 201007 >
Cyclone 201006 (Magda)
General InformationTrack Information on Google MapsDetailed Wind InformationList of All Images || ResourceGoogle EarthGE AnimationAtom FeedGeoJSON
Detalied Best Track (Time Zone = UTC)
Year Month Day Hour Lat. Long. Pressure (hPa) Wind (kt) Class Image Chart
2010 1 18 12 -10.8 123.0 1004 20 2 Image --
2010 1 18 18 -11.1 122.9 1002 25 2 Image --
2010 1 19 00 -11.2 122.9 1000 30 2 Image --
2010 1 19 06 -11.4 122.5 1000 30 2 Image --
2010 1 19 12 -11.7 122.5 1000 30 2 Image --
2010 1 19 18 -11.8 122.4 1000 30 2 Image --
2010 1 20 00 -12.0 122.3 996 35 3 Image --
2010 1 20 06 -12.3 122.2 995 40 3 Image --
2010 1 20 12 -12.6 122.3 992 45 3 Image --
2010 1 20 18 -13.0 122.5 985 55 4 Image --
2010 1 21 00 -13.5 123.2 978 65 5 Image --
2010 1 21 03 -13.9 123.3 980 60 4 Image --
2010 1 21 06 -14.2 123.5 982 60 4 Image --
2010 1 21 12 -14.5 124.1 988 50 4 Image --
2010 1 21 18 -15.1 124.4 980 65 5 Image --
2010 1 21 21 -15.5 124.5 975 70 5 Image --
2010 1 22 00 -15.8 124.5 980 65 5 Image --
2010 1 22 03 -16.2 124.4 982 60 4 Image --
2010 1 22 06 -16.6 124.4 986 50 4 Image --
2010 1 22 09 -17.1 124.4 992 40 3 Image --
2010 1 22 12 -17.3 124.4 996 30 2 Image --
2010 1 22 18 -17.8 124.2 998 25 2 Image --
2010 1 23 00 -18.1 124.0 1002 25 2 Image --
2010 1 23 06 -18.3 123.8 1000 20 2 Image --
2010 1 23 12 -18.9 123.6 1002 20 2 Image --
2010 1 23 18 -19.5 123.3 1002 20 2 Image --
2010 1 24 00 -19.8 122.9 1004 15 2 Image --
2010 1 24 06 -20.0 122.4 1002 15 2 Image --
< Cyclone 201005 2010 Season Cyclone 201007 >

Help